Time;durP1;ratioP1;P1;durP2;ratioP2;P2;SDS_P1;SDS_P2;PMS_P1;PMS_P2;Temp;Humidity;BMP_temperature;BMP_pressure;BME280_temperature;BME280_humidity;BME280_pressure;Samples;Min_cycle;Max_cycle;Signal;HPM_P1;HPM_P2
2022/02/17 00:00:14;;;;;;;0.40;0.40;;;13.50;99.90;;;;;;2114083;28;20499;-72
2022/02/17 00:01:15;;;;;;;1.50;0.40;;;13.50;99.90;;;;;;2123897;27;20019;-72
2022/02/17 00:02:15;;;;;;;1.00;0.40;;;13.50;99.90;;;;;;2123379;27;20514;-71
2022/02/17 00:03:16;;;;;;;0.35;0.35;;;13.40;99.90;;;;;;2114187;28;20047;-72
2022/02/17 00:04:17;;;;;;;1.17;0.40;;;13.40;99.90;;;;;;2114248;28;20478;-72
2022/02/17 00:05:18;;;;;;;0.90;0.55;;;13.40;99.90;;;;;;2123091;27;20550;-72
2022/02/17 00:06:18;;;;;;;0.45;0.30;;;13.50;99.90;;;;;;2123524;27;20046;-73
2022/02/17 00:07:19;;;;;;;1.10;0.30;;;13.60;99.90;;;;;;2122630;27;20031;-72
2022/02/17 00:08:20;;;;;;;2.13;0.50;;;13.70;99.90;;;;;;2122555;27;20076;-73
2022/02/17 00:09:20;;;;;;;0.52;0.40;;;13.60;99.90;;;;;;2114208;28;20092;-73
2022/02/17 00:10:26;;;;;;;0.40;0.40;;;13.60;99.90;;;;;;2114062;27;20515;-73
2022/02/17 00:11:26;;;;;;;0.40;0.40;;;13.60;99.90;;;;;;2114337;27;20085;-73
2022/02/17 00:12:27;;;;;;;0.47;0.40;;;13.60;99.90;;;;;;2122549;27;20035;-73
2022/02/17 00:13:28;;;;;;;0.40;0.40;;;13.60;99.90;;;;;;2122342;27;20019;-73
2022/02/17 00:14:28;;;;;;;0.90;0.40;;;13.60;99.90;;;;;;2122717;27;20099;-74
2022/02/17 00:15:31;;;;;;;1.20;0.40;;;13.60;99.90;;;;;;2122591;27;20031;-73
2022/02/17 00:16:32;;;;;;;1.17;0.40;;;13.50;99.90;;;;;;2114433;28;20092;-73
2022/02/17 00:17:32;;;;;;;0.45;0.40;;;13.60;99.90;;;;;;2122969;27;20103;-73
2022/02/17 00:18:33;;;;;;;0.55;0.50;;;13.60;99.90;;;;;;2123706;27;20019;-74
2022/02/17 00:19:33;;;;;;;0.70;0.40;;;13.70;99.90;;;;;;2122619;27;20089;-72
2022/02/17 00:20:34;;;;;;;0.28;0.28;;;13.70;99.90;;;;;;2122008;27;20035;-72
2022/02/17 00:21:35;;;;;;;0.35;0.35;;;13.70;99.90;;;;;;2121946;27;20027;-73
2022/02/17 00:22:36;;;;;;;0.38;0.38;;;13.70;99.90;;;;;;2123020;27;20042;-71
2022/02/17 00:23:37;;;;;;;0.35;0.32;;;13.60;99.90;;;;;;2114232;27;20027;-73
2022/02/17 00:24:38;;;;;;;0.25;0.25;;;13.60;99.90;;;;;;2122725;27;20019;-72
2022/02/17 00:25:38;;;;;;;0.30;0.30;;;13.70;99.90;;;;;;2123145;27;20468;-72
2022/02/17 00:26:40;;;;;;;0.20;0.20;;;13.70;99.90;;;;;;2123063;27;20072;-73
2022/02/17 00:27:41;;;;;;;0.20;0.20;;;13.70;99.90;;;;;;2113820;28;20410;-73
2022/02/17 00:28:41;;;;;;;0.28;0.28;;;13.70;99.90;;;;;;2114510;28;20027;-73
2022/02/17 00:29:42;;;;;;;0.32;0.32;;;13.60;99.90;;;;;;2105881;28;20805;-73
2022/02/17 00:30:43;;;;;;;0.30;0.30;;;13.60;99.90;;;;;;2105653;28;20023;-74
2022/02/17 00:31:44;;;;;;;0.30;0.30;;;13.50;99.90;;;;;;2113750;28;20020;-73
2022/02/17 00:32:44;;;;;;;0.30;0.30;;;13.60;99.90;;;;;;2114217;28;20028;-74
2022/02/17 00:33:46;;;;;;;0.30;0.30;;;13.60;99.90;;;;;;2114283;28;20065;-72
2022/02/17 00:34:47;;;;;;;0.30;0.30;;;13.60;99.90;;;;;;2105576;28;20676;-73
2022/02/17 00:35:48;;;;;;;0.30;0.30;;;13.60;99.90;;;;;;2113886;28;20023;-72
2022/02/17 00:36:48;;;;;;;0.30;0.30;;;13.60;99.90;;;;;;2113862;28;20464;-73
2022/02/17 00:37:49;;;;;;;0.30;0.30;;;13.70;99.90;;;;;;2113817;28;20104;-72
2022/02/17 00:38:50;;;;;;;0.40;0.40;;;13.70;99.90;;;;;;2123054;27;20382;-71
2022/02/17 00:39:51;;;;;;;0.55;0.40;;;13.70;99.90;;;;;;2122977;27;20027;-73
2022/02/17 00:40:52;;;;;;;0.30;0.30;;;13.80;99.90;;;;;;2124482;27;20076;-73
2022/02/17 00:41:52;;;;;;;0.32;0.32;;;13.80;99.90;;;;;;2107967;28;20117;-73
2022/02/17 00:42:53;;;;;;;0.32;0.32;;;13.70;99.90;;;;;;2110437;28;20111;-73
2022/02/17 00:43:53;;;;;;;0.30;0.30;;;13.70;99.90;;;;;;2123519;27;20067;-73
2022/02/17 00:44:54;;;;;;;0.30;0.30;;;13.70;99.90;;;;;;2114922;27;20130;-73
2022/02/17 00:45:55;;;;;;;0.30;0.30;;;13.80;99.90;;;;;;2106643;28;20031;-73
2022/02/17 00:46:57;;;;;;;0.55;0.30;;;13.90;99.90;;;;;;2114513;28;20024;-72
2022/02/17 00:47:58;;;;;;;1.30;0.30;;;14.00;99.90;;;;;;2122574;27;20121;-73
2022/02/17 00:48:58;;;;;;;0.40;0.40;;;14.10;99.90;;;;;;2123321;27;20038;-73
2022/02/17 00:49:59;;;;;;;0.30;0.30;;;14.10;99.90;;;;;;2123814;27;20449;-74
2022/02/17 00:51:04;;;;;;;0.32;0.32;;;14.10;99.90;;;;;;2125072;27;20050;-74
2022/02/17 00:52:06;;;;;;;1.25;0.30;;;14.20;99.90;;;;;;2116654;28;20078;-74
2022/02/17 00:53:07;;;;;;;0.30;0.30;;;14.20;99.90;;;;;;2109034;28;20031;-74
2022/02/17 00:54:08;;;;;;;1.45;0.40;;;14.10;99.90;;;;;;2108868;28;20032;-74
2022/02/17 00:55:11;;;;;;;1.17;0.40;;;14.10;99.90;;;;;;2117771;28;20050;-73
2022/02/17 00:56:12;;;;;;;0.30;0.30;;;14.10;99.90;;;;;;2108331;28;20024;-73
2022/02/17 00:57:15;;;;;;;0.40;0.40;;;14.10;99.90;;;;;;2110505;28;20035;-74
2022/02/17 00:58:16;;;;;;;1.17;0.40;;;14.10;99.90;;;;;;2110510;28;20032;-73
2022/02/17 00:59:17;;;;;;;0.60;0.30;;;14.10;99.90;;;;;;2120471;28;20031;-73
2022/02/17 01:00:17;;;;;;;0.43;0.30;;;14.10;99.90;;;;;;2119311;28;20019;-73
2022/02/17 01:01:19;;;;;;;0.22;0.22;;;14.10;99.90;;;;;;2120356;28;20047;-73
2022/02/17 01:02:20;;;;;;;0.30;0.30;;;14.10;99.90;;;;;;2119794;28;20049;-73
2022/02/17 01:03:20;;;;;;;1.00;0.40;;;14.00;99.90;;;;;;2120711;28;20045;-73
2022/02/17 01:04:22;;;;;;;1.27;0.30;;;14.10;99.90;;;;;;2121287;28;20072;-74
2022/02/17 01:05:23;;;;;;;2.13;0.30;;;14.10;99.90;;;;;;2128493;27;20023;-72
2022/02/17 01:06:24;;;;;;;0.28;0.28;;;14.10;99.90;;;;;;2120426;28;20034;-73
2022/02/17 01:07:24;;;;;;;0.30;0.30;;;14.10;99.90;;;;;;2103455;28;20575;-74
2022/02/17 01:08:25;;;;;;;0.40;0.40;;;14.20;99.90;;;;;;2110958;28;20024;-73
2022/02/17 01:09:27;;;;;;;0.45;0.30;;;14.20;99.90;;;;;;2117290;28;20027;-72
2022/02/17 01:10:29;;;;;;;0.30;0.30;;;14.20;99.90;;;;;;2115995;28;20528;-73
2022/02/17 01:11:33;;;;;;;0.95;0.30;;;14.10;99.90;;;;;;2115282;27;20024;-73
2022/02/17 01:12:34;;;;;;;0.30;0.25;;;14.20;99.90;;;;;;2115063;27;20038;-73
2022/02/17 01:13:34;;;;;;;0.40;0.30;;;14.20;99.90;;;;;;2106148;28;20027;-73
2022/02/17 01:14:35;;;;;;;0.30;0.30;;;14.20;99.90;;;;;;2105963;28;20027;-72
2022/02/17 01:15:36;;;;;;;0.30;0.30;;;14.10;99.90;;;;;;2105942;28;20035;-71
2022/02/17 01:16:37;;;;;;;0.30;0.30;;;14.10;99.90;;;;;;2114115;28;20514;-72
2022/02/17 01:17:46;;;;;;;3.40;0.30;;;14.10;99.90;;;;;;2122875;27;20061;-74
2022/02/17 01:18:47;;;;;;;0.40;0.40;;;14.10;99.90;;;;;;2122471;27;20030;-74
2022/02/17 01:19:52;;;;;;;0.25;0.25;;;14.20;99.90;;;;;;2121813;27;20530;-73
2022/02/17 01:20:53;;;;;;;0.30;0.30;;;14.20;99.90;;;;;;2122304;27;20031;-74
2022/02/17 01:21:53;;;;;;;0.22;0.22;;;14.10;99.90;;;;;;2106185;28;20032;-74
2022/02/17 01:22:54;;;;;;;0.20;0.20;;;14.10;99.90;;;;;;2106195;28;20036;-75
2022/02/17 01:23:59;;;;;;;0.95;0.30;;;14.10;99.90;;;;;;2114158;28;20052;-75
2022/02/17 01:24:59;;;;;;;0.30;0.30;;;14.00;99.90;;;;;;2121991;27;20035;-75
2022/02/17 01:26:00;;;;;;;0.70;0.30;;;14.00;99.90;;;;;;2114245;28;20027;-74
2022/02/17 01:27:04;;;;;;;1.00;0.30;;;14.10;99.90;;;;;;2114405;28;20406;-74
2022/02/17 01:28:05;;;;;;;1.63;0.30;;;14.10;99.90;;;;;;2114004;28;20023;-74
2022/02/17 01:29:06;;;;;;;0.30;0.30;;;14.30;99.90;;;;;;2114039;28;20487;-74
2022/02/17 01:30:10;;;;;;;0.43;0.30;;;14.30;99.90;;;;;;2113337;28;20016;-71
2022/02/17 01:31:11;;;;;;;0.30;0.30;;;14.20;99.90;;;;;;2114219;27;20636;-72
2022/02/17 01:32:14;;;;;;;0.30;0.30;;;14.20;99.90;;;;;;2121963;27;20027;-71
2022/02/17 01:33:14;;;;;;;0.40;0.40;;;14.20;99.90;;;;;;2105441;28;20016;-73
2022/02/17 01:34:26;;;;;;;0.30;0.30;;;14.10;99.90;;;;;;2108066;27;20078;-73
2022/02/17 01:35:30;;;;;;;2.70;0.30;;;14.10;99.90;;;;;;2113783;28;20034;-72
2022/02/17 01:36:37;;;;;;;1.77;0.60;;;14.10;99.90;;;;;;2114269;27;20032;-72
2022/02/17 01:37:38;;;;;;;0.50;0.40;;;14.10;99.90;;;;;;2113494;28;20065;-72
2022/02/17 01:38:42;;;;;;;0.30;0.30;;;14.10;99.90;;;;;;2113471;28;20457;-73
2022/02/17 01:39:43;;;;;;;0.30;0.30;;;14.10;99.90;;;;;;2114133;28;20035;-73
2022/02/17 01:40:47;;;;;;;1.98;0.45;;;14.10;99.90;;;;;;2121864;27;20031;-72
2022/02/17 01:41:49;;;;;;;0.40;0.40;;;14.10;99.90;;;;;;2113564;28;20024;-73
2022/02/17 01:42:56;;;;;;;0.90;0.30;;;14.10;99.90;;;;;;2114350;27;20483;-73
2022/02/17 01:44:02;;;;;;;0.52;0.30;;;14.10;99.90;;;;;;2113442;28;20027;-73
2022/02/17 01:45:05;;;;;;;0.30;0.30;;;14.10;99.90;;;;;;2114243;28;20038;-72
2022/02/17 01:46:06;;;;;;;0.40;0.40;;;14.10;99.90;;;;;;2113497;28;20037;-72
2022/02/17 01:47:13;;;;;;;0.30;0.30;;;14.10;99.90;;;;;;2097235;28;20028;-73
2022/02/17 01:48:14;;;;;;;0.30;0.30;;;14.10;99.90;;;;;;2114074;28;20039;-73
2022/02/17 01:49:19;;;;;;;0.40;0.40;;;14.10;99.90;;;;;;2113567;28;20034;-72
2022/02/17 01:50:20;;;;;;;0.40;0.40;;;14.10;99.90;;;;;;2096976;28;20017;-72
2022/02/17 01:51:23;;;;;;;1.45;0.40;;;14.10;99.90;;;;;;2105084;28;20050;-72
2022/02/17 01:52:27;;;;;;;1.15;0.40;;;14.10;99.90;;;;;;2114232;28;20027;-73
2022/02/17 01:53:30;;;;;;;1.55;0.40;;;14.20;99.90;;;;;;2105280;28;20032;-72
2022/02/17 01:54:33;;;;;;;0.40;0.40;;;14.20;99.90;;;;;;2105419;28;20530;-73
2022/02/17 01:55:34;;;;;;;0.55;0.55;;;14.20;99.90;;;;;;2113976;28;20106;-71
2022/02/17 01:56:38;;;;;;;0.40;0.40;;;14.10;99.90;;;;;;2122043;27;20031;-72
2022/02/17 01:57:41;;;;;;;0.30;0.30;;;14.10;99.90;;;;;;2114545;27;20038;-71
2022/02/17 01:58:43;;;;;;;0.30;0.30;;;14.10;99.90;;;;;;2105461;28;20028;-70
2022/02/17 01:59:51;;;;;;;0.40;0.40;;;14.10;99.90;;;;;;2098606;28;20032;-70
2022/02/17 02:01:02;;;;;;;0.30;0.30;;;14.00;99.90;;;;;;2108395;28;20040;-71
2022/02/17 02:02:04;;;;;;;0.30;0.30;;;14.10;99.90;;;;;;2113382;28;20037;-71
2022/02/17 02:03:06;;;;;;;0.30;0.30;;;14.10;99.90;;;;;;2113862;28;20032;-71
2022/02/17 02:04:25;;;;;;;0.38;0.38;;;14.10;99.90;;;;;;2108182;28;20066;-72
2022/02/17 02:05:33;;;;;;;2.38;0.40;;;14.10;99.90;;;;;;2110232;28;20035;-72
2022/02/17 02:06:35;;;;;;;0.40;0.40;;;14.10;99.90;;;;;;2114466;28;20020;-71
2022/02/17 02:07:41;;;;;;;1.60;0.40;;;14.00;99.90;;;;;;2114109;28;20020;-71
2022/02/17 02:08:49;;;;;;;0.30;0.30;;;14.10;99.90;;;;;;2105808;28;20021;-71
2022/02/17 02:09:50;;;;;;;0.30;0.30;;;14.10;99.90;;;;;;2097349;28;20059;-71
2022/02/17 02:11:01;;;;;;;0.35;0.35;;;14.00;99.90;;;;;;2115124;28;20035;-72
2022/02/17 02:12:03;;;;;;;0.60;0.40;;;14.00;99.90;;;;;;2121422;27;20059;-71
2022/02/17 02:13:04;;;;;;;0.32;0.32;;;13.90;99.90;;;;;;2113382;28;20038;-70
2022/02/17 02:14:17;;;;;;;0.73;0.30;;;13.90;99.90;;;;;;2121934;28;20037;-71
2022/02/17 02:15:18;;;;;;;1.08;0.30;;;13.90;99.90;;;;;;2121639;28;20398;-71
2022/02/17 02:16:20;;;;;;;0.52;0.30;;;13.80;99.90;;;;;;2113274;28;20035;-71
2022/02/17 02:17:23;;;;;;;1.58;0.38;;;13.90;99.90;;;;;;2121837;28;20058;-71
2022/02/17 02:18:23;;;;;;;0.40;0.40;;;13.80;99.90;;;;;;2121619;28;20106;-71
2022/02/17 02:19:27;;;;;;;1.10;0.50;;;13.90;99.90;;;;;;2113669;28;20136;-71
2022/02/17 02:20:32;;;;;;;0.30;0.30;;;13.90;99.90;;;;;;2113555;28;20063;-70
2022/02/17 02:21:33;;;;;;;0.43;0.32;;;13.90;99.90;;;;;;2121356;27;20034;-70
2022/02/17 02:22:33;;;;;;;0.60;0.30;;;13.80;99.90;;;;;;2121732;28;20362;-70
2022/02/17 02:23:35;;;;;;;0.35;0.35;;;13.90;99.90;;;;;;2121757;28;20031;-71
2022/02/17 02:24:39;;;;;;;1.27;0.43;;;14.00;99.90;;;;;;2113053;28;20030;-71
2022/02/17 02:25:47;;;;;;;0.82;0.40;;;14.00;99.90;;;;;;2096651;28;20427;-71
2022/02/17 02:26:48;;;;;;;0.30;0.30;;;14.00;99.90;;;;;;2106984;28;20037;-72
2022/02/17 02:27:56;;;;;;;0.30;0.30;;;14.00;99.90;;;;;;2114164;28;20107;-72
2022/02/17 02:28:56;;;;;;;1.60;0.40;;;14.10;99.90;;;;;;2121456;28;20031;-72
2022/02/17 02:29:57;;;;;;;0.40;0.40;;;14.10;99.90;;;;;;2121219;28;20027;-72
2022/02/17 02:31:03;;;;;;;0.38;0.38;;;14.20;99.90;;;;;;2121766;27;20020;-72
2022/02/17 02:32:05;;;;;;;1.92;0.40;;;14.20;99.90;;;;;;2113006;28;20054;-72
2022/02/17 02:33:06;;;;;;;0.63;0.40;;;14.20;99.90;;;;;;2123265;28;20490;-72
2022/02/17 02:34:07;;;;;;;0.40;0.40;;;14.20;99.90;;;;;;2114067;28;20023;-72
2022/02/17 02:35:09;;;;;;;0.30;0.30;;;14.20;99.90;;;;;;2114385;28;20045;-73
2022/02/17 02:36:10;;;;;;;0.40;0.40;;;14.20;99.90;;;;;;2122769;27;20023;-72
2022/02/17 02:37:14;;;;;;;0.40;0.40;;;14.10;99.90;;;;;;2114214;28;20027;-71
2022/02/17 02:38:19;;;;;;;0.40;0.40;;;14.10;99.90;;;;;;2113844;28;20043;-71
2022/02/17 02:39:20;;;;;;;0.57;0.40;;;14.20;99.90;;;;;;2114010;28;20052;-72
2022/02/17 02:40:28;;;;;;;0.95;0.40;;;14.10;99.90;;;;;;2121523;28;20077;-72
2022/02/17 02:41:31;;;;;;;2.75;0.40;;;14.10;99.90;;;;;;2122052;28;20500;-72
2022/02/17 02:42:32;;;;;;;0.40;0.40;;;14.10;99.90;;;;;;2113457;28;20024;-72
2022/02/17 02:43:33;;;;;;;0.35;0.35;;;14.10;99.90;;;;;;2122013;28;20061;-72
2022/02/17 02:44:34;;;;;;;0.80;0.40;;;14.00;99.90;;;;;;2113092;28;20016;-72
2022/02/17 02:45:36;;;;;;;1.10;0.40;;;14.00;99.90;;;;;;2113460;28;20107;-71
2022/02/17 02:46:42;;;;;;;0.40;0.40;;;14.00;99.90;;;;;;2121729;27;20034;-73
2022/02/17 02:47:43;;;;;;;0.60;0.40;;;13.90;99.90;;;;;;2113140;28;20126;-72
2022/02/17 02:48:44;;;;;;;0.47;0.40;;;13.90;99.90;;;;;;2121586;28;20114;-71
2022/02/17 02:49:47;;;;;;;0.50;0.47;;;13.80;99.90;;;;;;2112904;28;20055;-73
2022/02/17 02:50:48;;;;;;;1.10;0.60;;;13.70;99.90;;;;;;2105212;28;20404;-72
2022/02/17 02:51:49;;;;;;;2.20;0.65;;;13.70;99.90;;;;;;2121398;28;20047;-72
2022/02/17 02:52:52;;;;;;;1.73;0.50;;;13.50;99.90;;;;;;2121487;27;20031;-71
2022/02/17 02:53:53;;;;;;;0.85;0.60;;;13.40;99.90;;;;;;2121456;28;20023;-73
2022/02/17 02:54:54;;;;;;;0.40;0.40;;;13.30;99.90;;;;;;2113309;28;20110;-72
2022/02/17 02:55:55;;;;;;;0.60;0.60;;;13.20;99.90;;;;;;2113421;28;20441;-72
2022/02/17 02:56:56;;;;;;;0.90;0.68;;;13.20;99.90;;;;;;2113305;28;20074;-71
2022/02/17 02:57:58;;;;;;;0.52;0.40;;;13.10;99.90;;;;;;2121713;28;20084;-71
2022/02/17 02:58:59;;;;;;;0.40;0.40;;;13.00;99.90;;;;;;2113368;28;20123;-73
2022/02/17 03:00:00;;;;;;;1.50;0.50;;;13.00;99.90;;;;;;2112746;28;20039;-71
2022/02/17 03:01:01;;;;;;;0.60;0.60;;;12.90;99.90;;;;;;2113197;28;20059;-71
2022/02/17 03:02:02;;;;;;;1.40;0.40;;;12.90;99.90;;;;;;2121935;28;20106;-72
2022/02/17 03:03:03;;;;;;;0.40;0.40;;;12.90;99.90;;;;;;2122657;27;20023;-71
2022/02/17 03:04:03;;;;;;;0.73;0.40;;;12.90;99.90;;;;;;2122318;27;20130;-71
2022/02/17 03:05:04;;;;;;;0.50;0.50;;;12.90;99.90;;;;;;2122330;28;20042;-71
2022/02/17 03:06:05;;;;;;;1.38;0.50;;;13.00;99.90;;;;;;2113072;28;20379;-72
2022/02/17 03:07:06;;;;;;;0.50;0.50;;;12.90;99.90;;;;;;2113370;28;20081;-72
2022/02/17 03:08:09;;;;;;;0.95;0.47;;;13.00;99.90;;;;;;2122465;27;20025;-71
2022/02/17 03:09:09;;;;;;;0.50;0.50;;;13.00;99.90;;;;;;2113140;28;20031;-71
2022/02/17 03:10:11;;;;;;;0.40;0.40;;;12.90;99.90;;;;;;2112878;28;20027;-71
2022/02/17 03:11:12;;;;;;;0.60;0.47;;;12.90;99.90;;;;;;2112944;28;20052;-73
2022/02/17 03:12:16;;;;;;;0.60;0.60;;;12.90;99.90;;;;;;2113245;28;20020;-71
2022/02/17 03:13:18;;;;;;;0.50;0.50;;;12.90;99.90;;;;;;2121707;28;20552;-72
2022/02/17 03:14:20;;;;;;;0.73;0.50;;;12.90;99.90;;;;;;2113341;28;20069;-72
2022/02/17 03:15:21;;;;;;;0.68;0.50;;;13.00;99.90;;;;;;2113241;28;20426;-72
2022/02/17 03:16:23;;;;;;;0.50;0.50;;;13.00;99.90;;;;;;2112928;28;20081;-70
2022/02/17 03:17:24;;;;;;;0.50;0.50;;;13.00;99.90;;;;;;2113495;28;20050;-72
2022/02/17 03:18:27;;;;;;;1.48;0.50;;;13.00;99.90;;;;;;2113135;28;20066;-72
2022/02/17 03:19:28;;;;;;;1.00;0.60;;;13.00;99.90;;;;;;2106848;27;20028;-71
2022/02/17 03:20:28;;;;;;;0.80;0.50;;;12.90;99.90;;;;;;2114628;28;20023;-72
2022/02/17 03:21:29;;;;;;;0.65;0.60;;;12.90;99.90;;;;;;2114577;28;20028;-73
2022/02/17 03:22:30;;;;;;;0.50;0.50;;;12.90;99.90;;;;;;2114324;28;20031;-71
2022/02/17 03:23:33;;;;;;;0.50;0.50;;;12.80;99.90;;;;;;2122553;27;20031;-71
2022/02/17 03:24:42;;;;;;;0.52;0.52;;;12.80;99.90;;;;;;2115526;27;20029;-72
2022/02/17 03:25:43;;;;;;;0.85;0.40;;;12.80;99.90;;;;;;2114624;28;20024;-72
2022/02/17 03:26:50;;;;;;;0.55;0.50;;;12.80;99.90;;;;;;2114550;28;20058;-72
2022/02/17 03:27:52;;;;;;;0.60;0.60;;;12.80;99.90;;;;;;2107386;28;20442;-72
2022/02/17 03:29:11;;;;;;;1.52;0.70;;;12.80;99.90;;;;;;2123425;27;20027;-72
2022/02/17 03:30:18;;;;;;;3.75;1.00;;;12.70;99.90;;;;;;2122478;27;20478;-72
2022/02/17 03:31:19;;;;;;;4.32;1.10;;;12.70;99.90;;;;;;2123137;27;20114;-72
2022/02/17 03:32:30;;;;;;;3.80;1.05;;;12.60;99.90;;;;;;2115869;27;20157;-71
2022/02/17 03:33:31;;;;;;;3.33;0.90;;;12.50;99.90;;;;;;2106196;28;20047;-71
2022/02/17 03:34:35;;;;;;;3.75;1.00;;;12.40;99.90;;;;;;2115128;27;20057;-72
2022/02/17 03:35:36;;;;;;;2.63;0.73;;;12.30;99.90;;;;;;2123355;27;20087;-72
2022/02/17 03:36:36;;;;;;;2.53;0.90;;;12.20;99.90;;;;;;2123351;27;20026;-72
2022/02/17 03:37:38;;;;;;;1.30;0.57;;;12.20;99.90;;;;;;2123551;27;20106;-72
2022/02/17 03:38:39;;;;;;;1.40;0.70;;;12.10;99.90;;;;;;2123373;27;20051;-72
2022/02/17 03:39:41;;;;;;;1.15;0.70;;;12.00;99.90;;;;;;2114835;27;20072;-72
2022/02/17 03:40:51;;;;;;;0.82;0.70;;;12.00;99.90;;;;;;2115855;27;20024;-72
2022/02/17 03:41:54;;;;;;;1.88;0.80;;;11.90;99.90;;;;;;2106137;28;20028;-73
2022/02/17 03:42:57;;;;;;;2.60;0.80;;;11.90;99.90;;;;;;2115140;27;20020;-72
2022/02/17 03:43:58;;;;;;;3.05;1.15;;;11.90;99.90;;;;;;2123285;27;20104;-73
2022/02/17 03:45:04;;;;;;;2.10;0.80;;;11.90;99.90;;;;;;2114581;28;20581;-72
2022/02/17 03:46:06;;;;;;;1.52;0.70;;;11.90;99.90;;;;;;2116032;27;20053;-72
2022/02/17 03:47:08;;;;;;;1.38;0.80;;;11.80;99.90;;;;;;2124865;27;20391;-72
2022/02/17 03:48:19;;;;;;;3.00;0.90;;;11.80;99.90;;;;;;2118035;27;20020;-72
2022/02/17 03:49:26;;;;;;;3.03;0.90;;;11.80;99.90;;;;;;2115434;27;20030;-72
2022/02/17 03:50:26;;;;;;;2.25;0.90;;;11.70;99.90;;;;;;2113853;28;20525;-71
2022/02/17 03:51:38;;;;;;;1.30;0.90;;;11.70;99.90;;;;;;2115563;27;20020;-71
2022/02/17 03:52:39;;;;;;;2.90;0.95;;;11.60;99.90;;;;;;2114319;28;20012;-72
2022/02/17 03:53:50;;;;;;;1.80;0.80;;;11.60;99.90;;;;;;2115804;27;20551;-72
2022/02/17 03:54:52;;;;;;;2.72;0.90;;;11.60;99.90;;;;;;2114797;27;20028;-71
2022/02/17 03:55:53;;;;;;;3.42;1.10;;;11.70;99.90;;;;;;2123720;27;20571;-73
2022/02/17 03:56:56;;;;;;;3.38;1.25;;;11.60;99.90;;;;;;2124092;27;20019;-72
2022/02/17 03:59:00;;;;;;;3.83;1.00;;;11.50;99.90;;;;;;2117167;27;20040;-73
2022/02/17 03:59:33;;;;;;;3.17;0.70;;;11.50;99.90;;;;;;2117914;27;20023;-73
2022/02/17 04:00:34;;;;;;;2.78;1.10;;;11.40;99.90;;;;;;2114384;28;20056;-73
2022/02/17 04:01:36;;;;;;;3.42;1.17;;;11.40;99.90;;;;;;2114427;28;20038;-73
2022/02/17 04:02:39;;;;;;;4.55;1.08;;;11.40;99.90;;;;;;2115054;27;20026;-73
2022/02/17 04:03:40;;;;;;;1.73;0.98;;;11.40;99.90;;;;;;2114682;28;20027;-73
2022/02/17 04:04:42;;;;;;;2.60;0.90;;;11.40;99.90;;;;;;2114842;28;20115;-73
2022/02/17 04:05:43;;;;;;;2.92;0.90;;;11.40;99.90;;;;;;2122968;27;20115;-73
2022/02/17 04:06:44;;;;;;;1.75;0.90;;;11.30;99.90;;;;;;2123177;27;20058;-72
2022/02/17 04:07:44;;;;;;;2.30;0.98;;;11.30;99.90;;;;;;2114677;28;20098;-72
2022/02/17 04:08:55;;;;;;;2.92;1.10;;;11.30;99.90;;;;;;2115748;27;20674;-72
2022/02/17 04:09:58;;;;;;;2.38;1.05;;;11.30;99.90;;;;;;2114297;27;20031;-72
2022/02/17 04:11:02;;;;;;;2.80;1.00;;;11.30;99.90;;;;;;2114800;28;20106;-72
2022/02/17 04:12:06;;;;;;;2.33;0.80;;;11.30;99.90;;;;;;2122828;27;20512;-73
2022/02/17 04:13:09;;;;;;;4.40;1.10;;;11.20;99.90;;;;;;2114041;28;20105;-73
2022/02/17 04:14:20;;;;;;;4.00;1.27;;;11.30;99.90;;;;;;2109293;27;20450;-75
2022/02/17 04:15:24;;;;;;;2.58;1.30;;;11.20;99.90;;;;;;2114603;28;20038;-73
2022/02/17 04:16:25;;;;;;;3.25;1.20;;;11.10;99.90;;;;;;2122839;27;20049;-73
2022/02/17 04:17:46;;;;;;;3.13;1.13;;;10.80;99.90;;;;;;2114178;28;20024;-74
2022/02/17 04:19:10;;;;;;;4.93;1.33;;;10.60;99.90;;;;;;2094430;28;20064;-73
2022/02/17 04:20:29;;;;;;;2.47;1.33;;;10.40;99.90;;;;;;2122271;27;20043;-72
2022/02/17 04:21:48;;;;;;;5.28;1.45;;;10.20;99.90;;;;;;2122979;27;20138;-72
2022/02/17 04:23:05;;;;;;;3.30;1.30;;;10.00;99.90;;;;;;2123183;27;20027;-72
2022/02/17 04:24:09;;;;;;;2.85;1.20;;;9.90;99.90;;;;;;2123647;27;20379;-72
2022/02/17 04:25:22;;;;;;;3.10;1.40;;;9.80;99.90;;;;;;2118892;27;20093;-72
2022/02/17 04:26:23;;;;;;;4.30;1.30;;;9.60;99.90;;;;;;2119988;28;20027;-72
2022/02/17 04:27:33;;;;;;;4.07;1.50;;;9.50;99.90;;;;;;2123446;28;20004;-71
2022/02/17 04:28:40;;;;;;;4.15;1.50;;;9.50;99.90;;;;;;2114235;28;20028;-70
2022/02/17 04:29:41;;;;;;;6.43;1.60;;;9.40;99.90;;;;;;2125907;27;20019;-72
2022/02/17 04:30:44;;;;;;;6.25;1.90;;;9.30;99.90;;;;;;2116709;27;20020;-69
2022/02/17 04:31:45;;;;;;;4.82;1.35;;;9.20;99.90;;;;;;2108452;28;20051;-70
2022/02/17 04:32:46;;;;;;;4.63;1.40;;;9.00;99.90;;;;;;2116964;28;20058;-71
2022/02/17 04:34:12;;;;;;;5.68;1.48;;;8.90;99.90;;;;;;2120571;27;20019;-70
2022/02/17 04:35:12;;;;;;;2.63;1.30;;;8.80;99.90;;;;;;2117681;28;20023;-69
2022/02/17 04:36:14;;;;;;;4.72;1.50;;;8.70;99.90;;;;;;2118380;28;20012;-69
2022/02/17 04:37:14;;;;;;;3.35;1.38;;;8.70;99.90;;;;;;2117614;28;20056;-71
2022/02/17 04:38:16;;;;;;;8.18;1.58;;;8.60;99.90;;;;;;2118272;27;20020;-70
2022/02/17 04:39:20;;;;;;;5.05;1.73;;;8.60;99.90;;;;;;2119112;27;20019;-71
2022/02/17 04:42:18;;;;;;;4.68;1.80;;;8.60;99.90;;;;;;2117352;28;20031;-70
2022/02/17 04:43:03;;;;;;;7.75;1.75;;;8.50;99.90;;;;;;2119698;27;20020;-70
2022/02/17 04:44:03;;;;;;;7.80;1.80;;;8.50;99.90;;;;;;2125847;27;20031;-71
2022/02/17 04:45:07;;;;;;;6.18;1.75;;;8.40;99.90;;;;;;2125498;27;20027;-71
2022/02/17 04:46:08;;;;;;;4.57;1.60;;;8.40;99.90;;;;;;2117808;27;20109;-72
2022/02/17 04:47:09;;;;;;;2.53;1.35;;;8.40;99.90;;;;;;2116593;28;20080;-72
2022/02/17 04:48:10;;;;;;;4.20;1.40;;;8.30;99.90;;;;;;2115560;28;20856;-71
2022/02/17 04:49:11;;;;;;;4.35;1.60;;;8.30;99.90;;;;;;2106178;28;20028;-72
2022/02/17 04:50:11;;;;;;;5.60;1.30;;;8.20;99.90;;;;;;2122250;27;20833;-70
2022/02/17 04:51:13;;;;;;;3.10;1.38;;;8.20;99.90;;;;;;2123159;27;20015;-70
2022/02/17 04:52:14;;;;;;;4.35;1.55;;;8.10;99.90;;;;;;2114234;28;20050;-70
2022/02/17 04:53:15;;;;;;;3.42;1.50;;;8.10;99.90;;;;;;2122547;27;20147;-71
2022/02/17 04:54:27;;;;;;;6.65;1.70;;;8.10;99.90;;;;;;2115450;27;20028;-74
2022/02/17 04:55:28;;;;;;;5.45;1.60;;;8.10;99.90;;;;;;2114065;28;20040;-70
2022/02/17 04:56:30;;;;;;;7.78;1.90;;;8.10;99.90;;;;;;2114422;28;20034;-71
2022/02/17 04:57:31;;;;;;;7.03;1.70;;;8.10;99.90;;;;;;2113839;28;20062;-72
2022/02/17 04:58:32;;;;;;;4.90;1.70;;;8.10;99.90;;;;;;2105405;28;20487;-70
2022/02/17 04:59:34;;;;;;;5.65;1.30;;;8.00;99.90;;;;;;2114120;28;20069;-70
2022/02/17 05:00:35;;;;;;;5.25;1.30;;;7.90;99.90;;;;;;2113727;27;20608;-70
2022/02/17 05:01:55;;;;;;;4.00;1.33;;;7.80;99.90;;;;;;2107708;27;20092;-70
2022/02/17 05:03:28;;;;;;;9.15;1.50;;;7.80;99.90;;;;;;2108272;27;20043;-71
2022/02/17 05:04:59;;;;;;;4.97;1.20;;;7.70;99.90;;;;;;2110058;27;20019;-70
2022/02/17 05:06:02;;;;;;;4.00;1.30;;;7.60;99.90;;;;;;2122421;27;20049;-71
2022/02/17 05:07:04;;;;;;;7.00;1.67;;;7.50;99.90;;;;;;2122730;27;20020;-71
2022/02/17 05:08:05;;;;;;;4.90;1.40;;;7.50;99.90;;;;;;2122417;27;20035;-71
2022/02/17 05:09:08;;;;;;;5.80;1.30;;;7.40;99.90;;;;;;2123144;27;20052;-71
2022/02/17 05:10:15;;;;;;;4.88;1.40;;;7.30;99.90;;;;;;2123174;27;20019;-70
2022/02/17 05:11:20;;;;;;;6.55;1.30;;;7.20;99.90;;;;;;2123771;27;20079;-70
2022/02/17 05:12:22;;;;;;;6.05;1.30;;;7.20;99.90;;;;;;2123220;27;20032;-70
2022/02/17 05:13:24;;;;;;;5.00;1.40;;;7.10;99.90;;;;;;2123186;27;20034;-71
2022/02/17 05:14:26;;;;;;;6.32;1.50;;;7.10;99.90;;;;;;2114410;28;20060;-71
2022/02/17 05:15:28;;;;;;;8.20;1.52;;;7.10;99.90;;;;;;2114180;27;20073;-70
2022/02/17 05:16:32;;;;;;;5.35;1.58;;;7.10;99.90;;;;;;2122803;27;20067;-71
2022/02/17 05:17:33;;;;;;;6.85;1.48;;;7.10;99.90;;;;;;2122591;27;20038;-71
2022/02/17 05:18:34;;;;;;;5.90;1.40;;;7.00;99.90;;;;;;2122198;27;20035;-70
2022/02/17 05:19:38;;;;;;;5.25;1.58;;;7.10;99.90;;;;;;2122222;27;20015;-71
2022/02/17 05:20:58;;;;;;;4.97;1.55;;;7.00;99.90;;;;;;2116526;27;20040;-71
2022/02/17 05:22:41;;;;;;;6.30;1.52;;;7.00;99.90;;;;;;2122773;27;20102;-72
2022/02/17 05:23:54;;;;;;;13.55;5.78;;;7.00;99.90;;;;;;2122113;27;20023;-71
2022/02/17 05:25:01;;;;;;;14.55;8.25;;;7.00;99.90;;;;;;2114431;27;20444;-71
2022/02/17 05:26:20;;;;;;;6.28;1.60;;;7.00;99.90;;;;;;2116507;27;20036;-71
2022/02/17 05:27:42;;;;;;;4.43;1.35;;;6.90;99.90;;;;;;2116993;27;20027;-71
2022/02/17 05:29:02;;;;;;;6.32;1.45;;;7.00;99.90;;;;;;2123332;27;20490;-71
2022/02/17 05:30:26;;;;;;;6.68;1.48;;;7.00;99.90;;;;;;2122416;27;20035;-71
2022/02/17 05:31:32;;;;;;;6.72;1.58;;;7.00;99.90;;;;;;2123466;27;20111;-70
2022/02/17 05:32:52;;;;;;;5.50;1.70;;;7.00;99.90;;;;;;2122910;27;20055;-70
2022/02/17 05:34:20;;;;;;;5.57;1.60;;;7.00;99.90;;;;;;2118242;27;20055;-70